Beauvechain, Belgium
Current Conditions -  °F | °C
As of 9:25 PM on Monday 26 Jan 2015 (Local Time) from EBBE Reporting Station
Broken Clouds Broken Clouds  
Wind Chill: 36°   Ceiling: 4500
Heat Index: 41°   Visibility: 6mi
Dew Point: 36°   Wind: 7mph
Humidity: 81%   Direction: 300°WNW
Pressure: 30.18"   Gusts: NA
Location:  50.77°N, 4.77°E
Report Text: EBBE 262025Z 30006KT 9999 SCT035 BKN045 05/02 Q1022 BLU BLU
Loading
Personal Weather Stations






























Interactive Weather Map New forecast layout! Learn more

10-Day Weather Forecast

Advertisements
Track Severe Weather on mobile